sensor_id;sensor_type;location;lat;lon;timestamp;P1;durP1;ratioP1;P2;durP2;ratioP2
6442;SDS011;3254;47.372;8.512;2024-01-27T00:01:42;3.55;;;3.28;;
6442;SDS011;3254;47.372;8.512;2024-01-27T00:04:08;3.77;;;3.43;;
6442;SDS011;3254;47.372;8.512;2024-01-27T00:06:33;2.80;;;2.70;;
6442;SDS011;3254;47.372;8.512;2024-01-27T00:08:59;4.03;;;2.60;;
6442;SDS011;3254;47.372;8.512;2024-01-27T00:11:24;3.63;;;2.80;;
6442;SDS011;3254;47.372;8.512;2024-01-27T00:13:51;3.47;;;3.30;;
6442;SDS011;3254;47.372;8.512;2024-01-27T00:16:17;2.65;;;2.55;;
6442;SDS011;3254;47.372;8.512;2024-01-27T00:18:44;3.63;;;3.40;;
6442;SDS011;3254;47.372;8.512;2024-01-27T00:21:11;3.25;;;3.05;;
6442;SDS011;3254;47.372;8.512;2024-01-27T00:23:37;2.70;;;2.60;;
6442;SDS011;3254;47.372;8.512;2024-01-27T00:26:03;3.83;;;2.92;;
6442;SDS011;3254;47.372;8.512;2024-01-27T00:28:31;3.33;;;2.90;;
6442;SDS011;3254;47.372;8.512;2024-01-27T00:30:56;4.40;;;4.20;;
6442;SDS011;3254;47.372;8.512;2024-01-27T00:33:22;3.13;;;3.03;;
6442;SDS011;3254;47.372;8.512;2024-01-27T00:35:47;4.05;;;3.75;;
6442;SDS011;3254;47.372;8.512;2024-01-27T00:38:13;3.57;;;3.37;;
6442;SDS011;3254;47.372;8.512;2024-01-27T00:40:39;3.97;;;3.63;;
6442;SDS011;3254;47.372;8.512;2024-01-27T00:43:08;5.40;;;3.35;;
6442;SDS011;3254;47.372;8.512;2024-01-27T00:45:34;5.37;;;3.83;;
6442;SDS011;3254;47.372;8.512;2024-01-27T00:47:59;3.50;;;3.27;;
6442;SDS011;3254;47.372;8.512;2024-01-27T00:50:27;3.13;;;3.03;;
6442;SDS011;3254;47.372;8.512;2024-01-27T00:52:54;6.43;;;3.25;;
6442;SDS011;3254;47.372;8.512;2024-01-27T00:55:24;3.17;;;2.97;;
6442;SDS011;3254;47.372;8.512;2024-01-27T00:57:51;3.03;;;2.78;;
6442;SDS011;3254;47.372;8.512;2024-01-27T01:00:18;3.22;;;2.92;;
6442;SDS011;3254;47.372;8.512;2024-01-27T01:02:44;2.53;;;2.33;;
6442;SDS011;3254;47.372;8.512;2024-01-27T01:05:12;3.92;;;2.42;;
6442;SDS011;3254;47.372;8.512;2024-01-27T01:07:40;2.63;;;1.90;;
6442;SDS011;3254;47.372;8.512;2024-01-27T01:10:05;3.13;;;1.93;;
6442;SDS011;3254;47.372;8.512;2024-01-27T01:12:32;2.88;;;2.33;;
6442;SDS011;3254;47.372;8.512;2024-01-27T01:14:58;2.00;;;1.90;;
6442;SDS011;3254;47.372;8.512;2024-01-27T01:17:23;4.97;;;1.63;;
6442;SDS011;3254;47.372;8.512;2024-01-27T01:19:52;5.25;;;1.65;;
6442;SDS011;3254;47.372;8.512;2024-01-27T01:22:18;1.70;;;1.60;;
6442;SDS011;3254;47.372;8.512;2024-01-27T01:24:45;4.70;;;1.83;;
6442;SDS011;3254;47.372;8.512;2024-01-27T01:27:11;2.30;;;2.10;;
6442;SDS011;3254;47.372;8.512;2024-01-27T01:29:36;2.37;;;1.77;;
6442;SDS011;3254;47.372;8.512;2024-01-27T01:32:01;2.10;;;1.80;;
6442;SDS011;3254;47.372;8.512;2024-01-27T01:34:30;3.70;;;2.35;;
6442;SDS011;3254;47.372;8.512;2024-01-27T01:36:56;5.55;;;2.00;;
6442;SDS011;3254;47.372;8.512;2024-01-27T01:39:23;4.57;;;2.10;;
6442;SDS011;3254;47.372;8.512;2024-01-27T01:41:48;6.63;;;2.80;;
6442;SDS011;3254;47.372;8.512;2024-01-27T01:44:14;3.73;;;2.10;;
6442;SDS011;3254;47.372;8.512;2024-01-27T01:46:41;4.95;;;2.00;;
6442;SDS011;3254;47.372;8.512;2024-01-27T01:49:08;3.70;;;2.42;;
6442;SDS011;3254;47.372;8.512;2024-01-27T01:51:34;5.97;;;4.17;;
6442;SDS011;3254;47.372;8.512;2024-01-27T01:53:59;8.80;;;3.77;;
6442;SDS011;3254;47.372;8.512;2024-01-27T01:56:29;5.60;;;3.25;;
6442;SDS011;3254;47.372;8.512;2024-01-27T01:58:55;2.00;;;1.80;;
6442;SDS011;3254;47.372;8.512;2024-01-27T02:01:24;3.00;;;2.17;;
6442;SDS011;3254;47.372;8.512;2024-01-27T02:06:22;6.18;;;1.77;;
6442;SDS011;3254;47.372;8.512;2024-01-27T02:08:48;3.88;;;1.70;;
6442;SDS011;3254;47.372;8.512;2024-01-27T02:11:16;1.88;;;1.45;;
6442;SDS011;3254;47.372;8.512;2024-01-27T02:13:41;2.40;;;1.50;;
6442;SDS011;3254;47.372;8.512;2024-01-27T02:16:07;1.80;;;1.70;;
6442;SDS011;3254;47.372;8.512;2024-01-27T02:18:32;2.37;;;1.60;;
6442;SDS011;3254;47.372;8.512;2024-01-27T02:20:58;2.37;;;1.80;;
6442;SDS011;3254;47.372;8.512;2024-01-27T02:23:24;3.65;;;1.52;;
6442;SDS011;3254;47.372;8.512;2024-01-27T02:25:50;2.27;;;1.83;;
6442;SDS011;3254;47.372;8.512;2024-01-27T02:28:18;2.95;;;1.63;;
6442;SDS011;3254;47.372;8.512;2024-01-27T02:30:43;3.50;;;1.40;;
6442;SDS011;3254;47.372;8.512;2024-01-27T02:33:09;3.73;;;1.40;;
6442;SDS011;3254;47.372;8.512;2024-01-27T02:35:34;2.90;;;2.03;;
6442;SDS011;3254;47.372;8.512;2024-01-27T02:38:01;4.45;;;1.58;;
6442;SDS011;3254;47.372;8.512;2024-01-27T02:40:26;1.87;;;1.77;;
6442;SDS011;3254;47.372;8.512;2024-01-27T02:42:53;4.63;;;1.60;;
6442;SDS011;3254;47.372;8.512;2024-01-27T02:45:18;3.10;;;1.50;;
6442;SDS011;3254;47.372;8.512;2024-01-27T02:47:44;1.67;;;1.57;;
6442;SDS011;3254;47.372;8.512;2024-01-27T02:50:09;2.37;;;1.70;;
6442;SDS011;3254;47.372;8.512;2024-01-27T02:52:35;2.70;;;1.70;;
6442;SDS011;3254;47.372;8.512;2024-01-27T02:55:01;3.60;;;1.27;;
6442;SDS011;3254;47.372;8.512;2024-01-27T02:57:27;4.03;;;1.90;;
6442;SDS011;3254;47.372;8.512;2024-01-27T02:59:52;3.00;;;1.50;;
6442;SDS011;3254;47.372;8.512;2024-01-27T03:02:18;4.43;;;1.80;;
6442;SDS011;3254;47.372;8.512;2024-01-27T03:04:44;1.77;;;1.67;;
6442;SDS011;3254;47.372;8.512;2024-01-27T03:07:09;1.40;;;1.30;;
6442;SDS011;3254;47.372;8.512;2024-01-27T03:09:39;2.88;;;1.75;;
6442;SDS011;3254;47.372;8.512;2024-01-27T03:12:06;6.57;;;1.63;;
6442;SDS011;3254;47.372;8.512;2024-01-27T03:14:33;1.85;;;1.67;;
6442;SDS011;3254;47.372;8.512;2024-01-27T03:17:01;2.88;;;1.85;;
6442;SDS011;3254;47.372;8.512;2024-01-27T03:19:28;1.90;;;1.70;;
6442;SDS011;3254;47.372;8.512;2024-01-27T03:21:54;1.70;;;1.60;;
6442;SDS011;3254;47.372;8.512;2024-01-27T03:24:19;1.70;;;1.60;;
6442;SDS011;3254;47.372;8.512;2024-01-27T03:26:46;5.47;;;1.77;;
6442;SDS011;3254;47.372;8.512;2024-01-27T03:29:11;5.93;;;1.80;;
6442;SDS011;3254;47.372;8.512;2024-01-27T03:31:38;2.70;;;2.03;;
6442;SDS011;3254;47.372;8.512;2024-01-27T03:34:07;2.58;;;1.80;;
6442;SDS011;3254;47.372;8.512;2024-01-27T03:36:32;5.03;;;1.73;;
6442;SDS011;3254;47.372;8.512;2024-01-27T03:38:59;6.10;;;1.60;;
6442;SDS011;3254;47.372;8.512;2024-01-27T03:41:26;3.22;;;2.08;;
6442;SDS011;3254;47.372;8.512;2024-01-27T03:43:52;2.80;;;1.93;;
6442;SDS011;3254;47.372;8.512;2024-01-27T03:46:17;3.73;;;2.60;;
6442;SDS011;3254;47.372;8.512;2024-01-27T03:48:43;3.13;;;2.10;;
6442;SDS011;3254;47.372;8.512;2024-01-27T03:51:10;6.57;;;2.60;;
6442;SDS011;3254;47.372;8.512;2024-01-27T03:53:36;4.50;;;2.10;;
6442;SDS011;3254;47.372;8.512;2024-01-27T03:56:01;3.38;;;3.05;;
6442;SDS011;3254;47.372;8.512;2024-01-27T03:58:29;2.60;;;2.40;;
6442;SDS011;3254;47.372;8.512;2024-01-27T04:00:57;5.05;;;2.17;;
6442;SDS011;3254;47.372;8.512;2024-01-27T04:03:25;4.38;;;2.33;;
6442;SDS011;3254;47.372;8.512;2024-01-27T04:05:51;4.23;;;1.97;;
6442;SDS011;3254;47.372;8.512;2024-01-27T04:08:16;5.57;;;2.40;;
6442;SDS011;3254;47.372;8.512;2024-01-27T04:10:44;3.38;;;1.95;;
6442;SDS011;3254;47.372;8.512;2024-01-27T04:13:12;2.38;;;2.08;;
6442;SDS011;3254;47.372;8.512;2024-01-27T04:15:39;2.47;;;2.10;;
6442;SDS011;3254;47.372;8.512;2024-01-27T04:18:06;2.67;;;2.30;;
6442;SDS011;3254;47.372;8.512;2024-01-27T04:20:34;5.10;;;2.03;;
6442;SDS011;3254;47.372;8.512;2024-01-27T04:23:00;2.67;;;2.45;;
6442;SDS011;3254;47.372;8.512;2024-01-27T04:25:25;3.10;;;2.20;;
6442;SDS011;3254;47.372;8.512;2024-01-27T04:27:51;2.93;;;2.60;;
6442;SDS011;3254;47.372;8.512;2024-01-27T04:30:16;12.47;;;2.93;;
6442;SDS011;3254;47.372;8.512;2024-01-27T04:32:43;3.27;;;1.93;;
6442;SDS011;3254;47.372;8.512;2024-01-27T04:35:09;2.47;;;1.73;;
6442;SDS011;3254;47.372;8.512;2024-01-27T04:37:35;14.63;;;6.03;;
6442;SDS011;3254;47.372;8.512;2024-01-27T04:40:00;4.60;;;2.03;;
6442;SDS011;3254;47.372;8.512;2024-01-27T04:42:26;2.60;;;2.30;;
6442;SDS011;3254;47.372;8.512;2024-01-27T04:44:52;5.50;;;2.20;;
6442;SDS011;3254;47.372;8.512;2024-01-27T04:47:18;4.80;;;1.73;;
6442;SDS011;3254;47.372;8.512;2024-01-27T04:49:44;3.30;;;3.00;;
6442;SDS011;3254;47.372;8.512;2024-01-27T04:52:11;5.15;;;2.25;;
6442;SDS011;3254;47.372;8.512;2024-01-27T04:54:36;4.93;;;2.00;;
6442;SDS011;3254;47.372;8.512;2024-01-27T04:57:02;5.97;;;1.70;;
6442;SDS011;3254;47.372;8.512;2024-01-27T04:59:28;9.97;;;2.30;;
6442;SDS011;3254;47.372;8.512;2024-01-27T05:01:53;8.60;;;2.53;;
6442;SDS011;3254;47.372;8.512;2024-01-27T05:04:18;1.83;;;1.73;;
6442;SDS011;3254;47.372;8.512;2024-01-27T05:06:44;5.87;;;2.70;;
6442;SDS011;3254;47.372;8.512;2024-01-27T05:09:14;2.95;;;2.08;;
6442;SDS011;3254;47.372;8.512;2024-01-27T05:11:42;2.30;;;2.10;;
6442;SDS011;3254;47.372;8.512;2024-01-27T05:14:12;4.53;;;1.98;;
6442;SDS011;3254;47.372;8.512;2024-01-27T05:16:38;4.32;;;2.42;;
6442;SDS011;3254;47.372;8.512;2024-01-27T05:19:05;3.30;;;1.97;;
6442;SDS011;3254;47.372;8.512;2024-01-27T05:21:30;5.65;;;2.40;;
6442;SDS011;3254;47.372;8.512;2024-01-27T05:23:58;5.07;;;2.63;;
6442;SDS011;3254;47.372;8.512;2024-01-27T05:26:28;2.05;;;1.95;;
6442;SDS011;3254;47.372;8.512;2024-01-27T05:28:54;3.58;;;2.35;;
6442;SDS011;3254;47.372;8.512;2024-01-27T05:31:20;10.55;;;3.95;;
6442;SDS011;3254;47.372;8.512;2024-01-27T05:33:47;3.25;;;2.70;;
6442;SDS011;3254;47.372;8.512;2024-01-27T05:36:13;5.57;;;3.95;;
6442;SDS011;3254;47.372;8.512;2024-01-27T05:38:40;4.13;;;3.72;;
6442;SDS011;3254;47.372;8.512;2024-01-27T05:41:05;8.10;;;3.30;;
6442;SDS011;3254;47.372;8.512;2024-01-27T05:43:31;6.90;;;2.75;;
6442;SDS011;3254;47.372;8.512;2024-01-27T05:45:57;3.53;;;2.73;;
6442;SDS011;3254;47.372;8.512;2024-01-27T05:48:23;5.25;;;2.40;;
6442;SDS011;3254;47.372;8.512;2024-01-27T05:51:00;2.67;;;2.20;;
6442;SDS011;3254;47.372;8.512;2024-01-27T05:53:26;8.40;;;2.35;;
6442;SDS011;3254;47.372;8.512;2024-01-27T05:55:52;9.88;;;3.28;;
6442;SDS011;3254;47.372;8.512;2024-01-27T05:58:25;2.75;;;2.55;;
6442;SDS011;3254;47.372;8.512;2024-01-27T06:00:50;6.10;;;2.97;;
6442;SDS011;3254;47.372;8.512;2024-01-27T06:03:16;6.83;;;2.40;;
6442;SDS011;3254;47.372;8.512;2024-01-27T06:05:43;5.28;;;2.60;;
6442;SDS011;3254;47.372;8.512;2024-01-27T06:08:11;4.43;;;2.80;;
6442;SDS011;3254;47.372;8.512;2024-01-27T06:10:39;3.08;;;2.88;;
6442;SDS011;3254;47.372;8.512;2024-01-27T06:13:04;12.63;;;2.97;;
6442;SDS011;3254;47.372;8.512;2024-01-27T06:15:30;3.20;;;3.00;;
6442;SDS011;3254;47.372;8.512;2024-01-27T06:17:55;3.67;;;3.03;;
6442;SDS011;3254;47.372;8.512;2024-01-27T06:20:22;3.28;;;2.97;;
6442;SDS011;3254;47.372;8.512;2024-01-27T06:22:49;9.68;;;2.80;;
6442;SDS011;3254;47.372;8.512;2024-01-27T06:25:15;4.37;;;3.20;;
6442;SDS011;3254;47.372;8.512;2024-01-27T06:27:41;3.35;;;2.90;;
6442;SDS011;3254;47.372;8.512;2024-01-27T06:30:07;7.53;;;3.10;;
6442;SDS011;3254;47.372;8.512;2024-01-27T06:32:35;5.30;;;3.80;;
6442;SDS011;3254;47.372;8.512;2024-01-27T06:35:02;3.58;;;3.22;;
6442;SDS011;3254;47.372;8.512;2024-01-27T06:37:30;5.30;;;3.10;;
6442;SDS011;3254;47.372;8.512;2024-01-27T06:39:55;9.20;;;4.10;;
6442;SDS011;3254;47.372;8.512;2024-01-27T06:42:21;6.90;;;3.00;;
6442;SDS011;3254;47.372;8.512;2024-01-27T06:44:46;13.73;;;4.47;;
6442;SDS011;3254;47.372;8.512;2024-01-27T06:47:12;6.63;;;3.60;;
6442;SDS011;3254;47.372;8.512;2024-01-27T06:49:38;12.05;;;4.45;;
6442;SDS011;3254;47.372;8.512;2024-01-27T06:52:04;5.73;;;3.93;;
6442;SDS011;3254;47.372;8.512;2024-01-27T06:54:30;4.03;;;3.60;;
6442;SDS011;3254;47.372;8.512;2024-01-27T06:57:01;11.95;;;3.58;;
6442;SDS011;3254;47.372;8.512;2024-01-27T06:59:30;5.07;;;4.03;;
6442;SDS011;3254;47.372;8.512;2024-01-27T07:01:56;22.55;;;3.65;;
6442;SDS011;3254;47.372;8.512;2024-01-27T07:04:23;4.80;;;3.37;;
6442;SDS011;3254;47.372;8.512;2024-01-27T07:06:48;7.70;;;4.75;;
6442;SDS011;3254;47.372;8.512;2024-01-27T07:09:18;18.25;;;4.72;;
6442;SDS011;3254;47.372;8.512;2024-01-27T07:11:46;9.15;;;4.18;;
6442;SDS011;3254;47.372;8.512;2024-01-27T07:14:12;7.70;;;4.03;;
6442;SDS011;3254;47.372;8.512;2024-01-27T07:16:38;4.47;;;4.00;;
6442;SDS011;3254;47.372;8.512;2024-01-27T07:19:05;8.02;;;4.18;;
6442;SDS011;3254;47.372;8.512;2024-01-27T07:21:31;5.00;;;3.67;;
6442;SDS011;3254;47.372;8.512;2024-01-27T07:23:56;9.73;;;4.40;;
6442;SDS011;3254;47.372;8.512;2024-01-27T07:26:21;7.50;;;4.40;;
6442;SDS011;3254;47.372;8.512;2024-01-27T07:28:47;6.13;;;3.93;;
6442;SDS011;3254;47.372;8.512;2024-01-27T07:31:13;4.27;;;4.00;;
6442;SDS011;3254;47.372;8.512;2024-01-27T07:33:38;11.57;;;5.00;;
6442;SDS011;3254;47.372;8.512;2024-01-27T07:36:04;5.57;;;4.30;;
6442;SDS011;3254;47.372;8.512;2024-01-27T07:38:30;5.23;;;4.40;;
6442;SDS011;3254;47.372;8.512;2024-01-27T07:40:57;9.30;;;4.63;;
6442;SDS011;3254;47.372;8.512;2024-01-27T07:43:24;5.90;;;4.80;;
6442;SDS011;3254;47.372;8.512;2024-01-27T07:45:50;5.72;;;4.88;;
6442;SDS011;3254;47.372;8.512;2024-01-27T07:48:17;7.40;;;5.10;;
6442;SDS011;3254;47.372;8.512;2024-01-27T07:50:44;6.68;;;5.00;;
6442;SDS011;3254;47.372;8.512;2024-01-27T07:53:13;7.32;;;4.75;;
6442;SDS011;3254;47.372;8.512;2024-01-27T07:55:42;16.50;;;5.60;;
6442;SDS011;3254;47.372;8.512;2024-01-27T07:58:07;8.85;;;4.53;;
6442;SDS011;3254;47.372;8.512;2024-01-27T08:00:33;9.90;;;5.00;;
6442;SDS011;3254;47.372;8.512;2024-01-27T08:02:58;9.13;;;5.37;;
6442;SDS011;3254;47.372;8.512;2024-01-27T08:05:24;5.70;;;5.20;;
6442;SDS011;3254;47.372;8.512;2024-01-27T08:07:49;4.83;;;4.33;;
6442;SDS011;3254;47.372;8.512;2024-01-27T08:10:15;7.10;;;5.40;;
6442;SDS011;3254;47.372;8.512;2024-01-27T08:12:42;7.78;;;5.60;;
6442;SDS011;3254;47.372;8.512;2024-01-27T08:15:09;6.10;;;5.50;;
6442;SDS011;3254;47.372;8.512;2024-01-27T08:17:36;13.02;;;4.88;;
6442;SDS011;3254;47.372;8.512;2024-01-27T08:20:03;5.40;;;4.90;;
6442;SDS011;3254;47.372;8.512;2024-01-27T08:22:30;11.75;;;5.15;;
6442;SDS011;3254;47.372;8.512;2024-01-27T08:24:56;11.80;;;4.50;;
6442;SDS011;3254;47.372;8.512;2024-01-27T08:27:21;10.37;;;4.80;;
6442;SDS011;3254;47.372;8.512;2024-01-27T08:29:49;7.93;;;4.80;;
6442;SDS011;3254;47.372;8.512;2024-01-27T08:32:15;11.47;;;4.10;;
6442;SDS011;3254;47.372;8.512;2024-01-27T08:34:41;6.90;;;4.80;;
6442;SDS011;3254;47.372;8.512;2024-01-27T08:37:13;13.23;;;4.57;;
6442;SDS011;3254;47.372;8.512;2024-01-27T08:39:45;15.95;;;5.45;;
6442;SDS011;3254;47.372;8.512;2024-01-27T08:42:12;6.80;;;4.80;;
6442;SDS011;3254;47.372;8.512;2024-01-27T08:44:38;7.75;;;4.68;;
6442;SDS011;3254;47.372;8.512;2024-01-27T08:47:08;7.80;;;5.00;;
6442;SDS011;3254;47.372;8.512;2024-01-27T08:49:33;9.85;;;4.72;;
6442;SDS011;3254;47.372;8.512;2024-01-27T08:51:59;7.93;;;4.63;;
6442;SDS011;3254;47.372;8.512;2024-01-27T08:54:24;5.13;;;4.40;;
6442;SDS011;3254;47.372;8.512;2024-01-27T08:56:50;4.97;;;4.03;;
6442;SDS011;3254;47.372;8.512;2024-01-27T08:59:18;7.10;;;3.90;;
6442;SDS011;3254;47.372;8.512;2024-01-27T09:01:44;5.20;;;3.58;;
6442;SDS011;3254;47.372;8.512;2024-01-27T09:04:09;7.00;;;4.43;;
6442;SDS011;3254;47.372;8.512;2024-01-27T09:06:35;5.43;;;4.00;;
6442;SDS011;3254;47.372;8.512;2024-01-27T09:09:03;9.05;;;3.80;;
6442;SDS011;3254;47.372;8.512;2024-01-27T09:11:28;5.38;;;3.63;;
6442;SDS011;3254;47.372;8.512;2024-01-27T09:13:56;6.32;;;4.13;;
6442;SDS011;3254;47.372;8.512;2024-01-27T09:16:21;7.53;;;3.97;;
6442;SDS011;3254;47.372;8.512;2024-01-27T09:18:48;3.97;;;3.78;;
6442;SDS011;3254;47.372;8.512;2024-01-27T09:21:16;8.57;;;3.75;;
6442;SDS011;3254;47.372;8.512;2024-01-27T09:23:45;4.38;;;3.97;;
6442;SDS011;3254;47.372;8.512;2024-01-27T09:26:13;5.10;;;4.20;;
6442;SDS011;3254;47.372;8.512;2024-01-27T09:28:43;4.10;;;3.80;;
6442;SDS011;3254;47.372;8.512;2024-01-27T09:31:12;9.13;;;3.90;;
6442;SDS011;3254;47.372;8.512;2024-01-27T09:33:37;3.83;;;3.50;;
6442;SDS011;3254;47.372;8.512;2024-01-27T09:36:03;8.80;;;4.50;;
6442;SDS011;3254;47.372;8.512;2024-01-27T09:38:29;4.63;;;4.00;;
6442;SDS011;3254;47.372;8.512;2024-01-27T09:40:54;6.93;;;3.80;;
6442;SDS011;3254;47.372;8.512;2024-01-27T09:43:20;5.10;;;3.90;;
6442;SDS011;3254;47.372;8.512;2024-01-27T09:45:46;4.72;;;3.58;;
6442;SDS011;3254;47.372;8.512;2024-01-27T09:48:11;5.83;;;3.90;;
6442;SDS011;3254;47.372;8.512;2024-01-27T09:50:39;3.53;;;3.33;;
6442;SDS011;3254;47.372;8.512;2024-01-27T09:53:06;6.87;;;4.30;;
6442;SDS011;3254;47.372;8.512;2024-01-27T09:55:34;6.70;;;3.57;;
6442;SDS011;3254;47.372;8.512;2024-01-27T09:57:59;5.53;;;3.90;;
6442;SDS011;3254;47.372;8.512;2024-01-27T10:00:25;8.17;;;4.00;;
6442;SDS011;3254;47.372;8.512;2024-01-27T10:02:51;6.80;;;4.00;;
6442;SDS011;3254;47.372;8.512;2024-01-27T10:05:16;4.60;;;4.10;;
6442;SDS011;3254;47.372;8.512;2024-01-27T10:07:43;5.20;;;3.97;;
6442;SDS011;3254;47.372;8.512;2024-01-27T10:10:08;6.93;;;3.90;;
6442;SDS011;3254;47.372;8.512;2024-01-27T10:12:35;3.43;;;3.20;;
6442;SDS011;3254;47.372;8.512;2024-01-27T10:15:05;11.50;;;4.22;;
6442;SDS011;3254;47.372;8.512;2024-01-27T10:17:31;7.53;;;4.37;;
6442;SDS011;3254;47.372;8.512;2024-01-27T10:20:03;6.55;;;5.00;;
6442;SDS011;3254;47.372;8.512;2024-01-27T10:22:41;6.00;;;4.23;;
6442;SDS011;3254;47.372;8.512;2024-01-27T10:25:08;4.47;;;4.07;;
6442;SDS011;3254;47.372;8.512;2024-01-27T10:27:34;9.13;;;4.20;;
6442;SDS011;3254;47.372;8.512;2024-01-27T10:30:00;7.03;;;4.60;;
6442;SDS011;3254;47.372;8.512;2024-01-27T10:32:26;6.60;;;4.70;;
6442;SDS011;3254;47.372;8.512;2024-01-27T10:35:01;5.40;;;4.07;;
6442;SDS011;3254;47.372;8.512;2024-01-27T10:37:29;8.80;;;4.67;;
6442;SDS011;3254;47.372;8.512;2024-01-27T10:40:05;6.30;;;4.20;;
6442;SDS011;3254;47.372;8.512;2024-01-27T10:42:35;6.30;;;4.20;;
6442;SDS011;3254;47.372;8.512;2024-01-27T10:45:02;7.90;;;4.20;;
6442;SDS011;3254;47.372;8.512;2024-01-27T10:47:29;7.93;;;4.03;;
6442;SDS011;3254;47.372;8.512;2024-01-27T10:49:56;7.40;;;4.23;;
6442;SDS011;3254;47.372;8.512;2024-01-27T10:52:23;6.03;;;4.17;;
6442;SDS011;3254;47.372;8.512;2024-01-27T10:54:53;4.63;;;4.23;;
6442;SDS011;3254;47.372;8.512;2024-01-27T10:57:21;4.60;;;4.17;;
6442;SDS011;3254;47.372;8.512;2024-01-27T10:59:46;7.20;;;4.00;;
6442;SDS011;3254;47.372;8.512;2024-01-27T11:02:13;5.93;;;3.40;;
6442;SDS011;3254;47.372;8.512;2024-01-27T11:04:40;5.00;;;4.60;;
6442;SDS011;3254;47.372;8.512;2024-01-27T11:07:06;4.20;;;3.90;;
6442;SDS011;3254;47.372;8.512;2024-01-27T11:09:32;6.00;;;4.97;;
6442;SDS011;3254;47.372;8.512;2024-01-27T11:11:59;4.07;;;3.60;;
6442;SDS011;3254;47.372;8.512;2024-01-27T11:14:24;7.17;;;4.80;;
6442;SDS011;3254;47.372;8.512;2024-01-27T11:16:54;7.57;;;4.73;;
6442;SDS011;3254;47.372;8.512;2024-01-27T11:19:21;8.20;;;4.90;;
6442;SDS011;3254;47.372;8.512;2024-01-27T11:21:46;4.97;;;4.30;;
6442;SDS011;3254;47.372;8.512;2024-01-27T11:24:16;7.90;;;3.80;;
6442;SDS011;3254;47.372;8.512;2024-01-27T11:26:43;4.37;;;3.97;;
6442;SDS011;3254;47.372;8.512;2024-01-27T11:29:09;7.00;;;3.53;;
6442;SDS011;3254;47.372;8.512;2024-01-27T11:31:44;6.80;;;4.10;;
6442;SDS011;3254;47.372;8.512;2024-01-27T11:34:13;6.40;;;4.60;;
6442;SDS011;3254;47.372;8.512;2024-01-27T11:36:41;8.23;;;4.37;;
6442;SDS011;3254;47.372;8.512;2024-01-27T11:39:22;5.27;;;3.70;;
6442;SDS011;3254;47.372;8.512;2024-01-27T11:41:48;6.77;;;4.10;;
6442;SDS011;3254;47.372;8.512;2024-01-27T11:44:13;5.13;;;4.50;;
6442;SDS011;3254;47.372;8.512;2024-01-27T11:46:40;6.37;;;4.03;;
6442;SDS011;3254;47.372;8.512;2024-01-27T11:49:06;5.53;;;4.20;;
6442;SDS011;3254;47.372;8.512;2024-01-27T11:51:31;5.37;;;4.17;;
6442;SDS011;3254;47.372;8.512;2024-01-27T11:53:57;9.47;;;4.67;;
6442;SDS011;3254;47.372;8.512;2024-01-27T11:56:23;4.53;;;4.13;;
6442;SDS011;3254;47.372;8.512;2024-01-27T11:58:53;9.37;;;4.00;;
6442;SDS011;3254;47.372;8.512;2024-01-27T12:01:18;4.13;;;3.77;;
6442;SDS011;3254;47.372;8.512;2024-01-27T12:03:44;9.23;;;4.17;;
6442;SDS011;3254;47.372;8.512;2024-01-27T12:06:10;5.23;;;4.53;;
6442;SDS011;3254;47.372;8.512;2024-01-27T12:08:36;5.70;;;4.50;;
6442;SDS011;3254;47.372;8.512;2024-01-27T12:11:02;8.33;;;4.20;;
6442;SDS011;3254;47.372;8.512;2024-01-27T12:13:27;6.13;;;4.40;;
6442;SDS011;3254;47.372;8.512;2024-01-27T12:15:53;4.80;;;4.13;;
6442;SDS011;3254;47.372;8.512;2024-01-27T12:18:18;4.70;;;4.30;;
6442;SDS011;3254;47.372;8.512;2024-01-27T12:20:44;4.13;;;3.83;;
6442;SDS011;3254;47.372;8.512;2024-01-27T12:23:10;5.03;;;4.00;;
6442;SDS011;3254;47.372;8.512;2024-01-27T12:25:35;4.70;;;4.37;;
6442;SDS011;3254;47.372;8.512;2024-01-27T12:28:01;4.00;;;3.63;;
6442;SDS011;3254;47.372;8.512;2024-01-27T12:30:28;5.10;;;4.30;;
6442;SDS011;3254;47.372;8.512;2024-01-27T12:32:53;7.53;;;3.70;;
6442;SDS011;3254;47.372;8.512;2024-01-27T12:35:19;5.33;;;3.70;;
6442;SDS011;3254;47.372;8.512;2024-01-27T12:37:44;6.60;;;4.20;;
6442;SDS011;3254;47.372;8.512;2024-01-27T12:40:19;4.23;;;3.70;;
6442;SDS011;3254;47.372;8.512;2024-01-27T12:42:47;3.93;;;3.37;;
6442;SDS011;3254;47.372;8.512;2024-01-27T12:45:14;5.37;;;3.60;;
6442;SDS011;3254;47.372;8.512;2024-01-27T12:47:41;4.80;;;3.63;;
6442;SDS011;3254;47.372;8.512;2024-01-27T12:50:07;3.67;;;3.10;;
6442;SDS011;3254;47.372;8.512;2024-01-27T12:52:38;4.20;;;3.37;;
6442;SDS011;3254;47.372;8.512;2024-01-27T12:55:05;3.33;;;3.03;;
6442;SDS011;3254;47.372;8.512;2024-01-27T12:57:30;6.77;;;3.70;;
6442;SDS011;3254;47.372;8.512;2024-01-27T13:00:00;8.93;;;3.77;;
6442;SDS011;3254;47.372;8.512;2024-01-27T13:02:29;4.70;;;3.20;;
6442;SDS011;3254;47.372;8.512;2024-01-27T13:04:57;4.33;;;3.20;;
6442;SDS011;3254;47.372;8.512;2024-01-27T13:07:22;9.63;;;3.00;;
6442;SDS011;3254;47.372;8.512;2024-01-27T13:09:49;4.97;;;3.47;;
6442;SDS011;3254;47.372;8.512;2024-01-27T13:12:14;4.30;;;3.90;;
6442;SDS011;3254;47.372;8.512;2024-01-27T13:14:40;4.00;;;3.70;;
6442;SDS011;3254;47.372;8.512;2024-01-27T13:17:05;4.77;;;3.53;;
6442;SDS011;3254;47.372;8.512;2024-01-27T13:19:31;5.50;;;3.90;;
6442;SDS011;3254;47.372;8.512;2024-01-27T13:21:56;4.10;;;3.67;;
6442;SDS011;3254;47.372;8.512;2024-01-27T13:24:22;4.73;;;3.77;;
6442;SDS011;3254;47.372;8.512;2024-01-27T13:26:50;4.00;;;3.60;;
6442;SDS011;3254;47.372;8.512;2024-01-27T13:29:16;3.93;;;3.33;;
6442;SDS011;3254;47.372;8.512;2024-01-27T13:31:42;4.53;;;3.40;;
6442;SDS011;3254;47.372;8.512;2024-01-27T13:34:07;3.70;;;3.30;;
6442;SDS011;3254;47.372;8.512;2024-01-27T13:36:33;3.63;;;3.40;;
6442;SDS011;3254;47.372;8.512;2024-01-27T13:38:59;5.47;;;3.67;;
6442;SDS011;3254;47.372;8.512;2024-01-27T13:41:25;4.47;;;3.50;;
6442;SDS011;3254;47.372;8.512;2024-01-27T13:43:51;4.70;;;3.27;;
6442;SDS011;3254;47.372;8.512;2024-01-27T13:46:16;6.73;;;3.83;;
6442;SDS011;3254;47.372;8.512;2024-01-27T13:48:42;4.70;;;3.40;;
6442;SDS011;3254;47.372;8.512;2024-01-27T13:51:08;5.03;;;3.60;;
6442;SDS011;3254;47.372;8.512;2024-01-27T13:53:33;4.50;;;3.43;;
6442;SDS011;3254;47.372;8.512;2024-01-27T13:55:59;4.23;;;3.83;;
6442;SDS011;3254;47.372;8.512;2024-01-27T13:58:25;4.60;;;3.47;;
6442;SDS011;3254;47.372;8.512;2024-01-27T14:00:52;7.20;;;4.33;;
6442;SDS011;3254;47.372;8.512;2024-01-27T14:03:20;4.83;;;3.10;;
6442;SDS011;3254;47.372;8.512;2024-01-27T14:05:46;4.20;;;3.43;;
6442;SDS011;3254;47.372;8.512;2024-01-27T14:08:12;4.13;;;3.47;;
6442;SDS011;3254;47.372;8.512;2024-01-27T14:10:38;4.73;;;3.13;;
6442;SDS011;3254;47.372;8.512;2024-01-27T14:13:08;5.50;;;3.23;;
6442;SDS011;3254;47.372;8.512;2024-01-27T14:15:37;6.13;;;3.67;;
6442;SDS011;3254;47.372;8.512;2024-01-27T14:18:03;4.87;;;3.47;;
6442;SDS011;3254;47.372;8.512;2024-01-27T14:20:32;8.23;;;4.13;;
6442;SDS011;3254;47.372;8.512;2024-01-27T14:23:02;6.97;;;3.57;;
6442;SDS011;3254;47.372;8.512;2024-01-27T14:25:28;3.83;;;3.60;;
6442;SDS011;3254;47.372;8.512;2024-01-27T14:27:54;4.90;;;3.70;;
6442;SDS011;3254;47.372;8.512;2024-01-27T14:30:20;3.80;;;3.30;;
6442;SDS011;3254;47.372;8.512;2024-01-27T14:32:45;6.53;;;3.73;;
6442;SDS011;3254;47.372;8.512;2024-01-27T14:35:12;6.07;;;3.20;;
6442;SDS011;3254;47.372;8.512;2024-01-27T14:37:38;5.23;;;4.13;;
6442;SDS011;3254;47.372;8.512;2024-01-27T14:40:03;4.50;;;3.33;;
6442;SDS011;3254;47.372;8.512;2024-01-27T14:42:29;3.67;;;3.30;;
6442;SDS011;3254;47.372;8.512;2024-01-27T14:44:55;5.07;;;3.50;;
6442;SDS011;3254;47.372;8.512;2024-01-27T14:47:21;3.33;;;2.97;;
6442;SDS011;3254;47.372;8.512;2024-01-27T14:49:46;3.90;;;3.10;;
6442;SDS011;3254;47.372;8.512;2024-01-27T14:52:12;5.13;;;3.80;;
6442;SDS011;3254;47.372;8.512;2024-01-27T14:54:38;3.87;;;3.20;;
6442;SDS011;3254;47.372;8.512;2024-01-27T14:57:04;9.10;;;3.90;;
6442;SDS011;3254;47.372;8.512;2024-01-27T14:59:31;4.63;;;4.00;;
6442;SDS011;3254;47.372;8.512;2024-01-27T15:01:56;5.13;;;3.67;;
6442;SDS011;3254;47.372;8.512;2024-01-27T15:04:24;8.83;;;4.40;;
6442;SDS011;3254;47.372;8.512;2024-01-27T15:06:53;3.43;;;3.13;;
6442;SDS011;3254;47.372;8.512;2024-01-27T15:09:19;4.07;;;3.60;;
6442;SDS011;3254;47.372;8.512;2024-01-27T15:11:46;4.93;;;3.47;;
6442;SDS011;3254;47.372;8.512;2024-01-27T15:14:12;3.40;;;2.83;;